createdAt,value
2023-04-02T00:02:23.477Z,17.07
2023-04-02T00:05:19.545Z,17.05
2023-04-02T00:07:58.109Z,17.05
2023-04-02T00:10:32.383Z,17.04
2023-04-02T00:13:18.084Z,17.05
2023-04-02T00:15:50.165Z,17.06
2023-04-02T00:18:20.819Z,17.06
2023-04-02T00:21:12.281Z,17.07
2023-04-02T00:23:42.770Z,17.05
2023-04-02T00:26:25.435Z,17.06
2023-04-02T00:28:52.852Z,17.05
2023-04-02T00:31:21.218Z,17.06
2023-04-02T00:33:49.923Z,17.06
2023-04-02T00:36:20.274Z,17.07
2023-04-02T00:38:48.860Z,17.06
2023-04-02T00:41:24.078Z,17.07
2023-04-02T00:43:53.746Z,17.07
2023-04-02T00:46:30.154Z,17.06
2023-04-02T00:49:10.496Z,17.07
2023-04-02T00:51:44.486Z,17.06
2023-04-02T00:54:15.804Z,17.06
2023-04-02T00:56:47.348Z,17.08
2023-04-02T00:59:48.200Z,17.05
2023-04-02T01:02:17.460Z,17.06
2023-04-02T01:05:04.112Z,17.02
2023-04-02T01:08:12.336Z,17.02
2023-04-02T01:11:43.635Z,16.98
2023-04-02T01:14:34.617Z,17.00
2023-04-02T01:17:22.455Z,16.98
2023-04-02T01:20:43.921Z,16.96
2023-04-02T01:23:35.747Z,16.98
2023-04-02T01:26:52.573Z,16.95
2023-04-02T01:29:35.823Z,16.93
2023-04-02T01:32:08.096Z,16.95
2023-04-02T01:34:36.389Z,16.95
2023-04-02T01:37:36.900Z,16.95
2023-04-02T01:40:34.174Z,16.94
2023-04-02T01:43:19.364Z,16.95
2023-04-02T01:45:47.022Z,16.95
2023-04-02T01:48:22.549Z,16.97
2023-04-02T01:50:52.815Z,16.95
2023-04-02T01:53:23.754Z,16.98
2023-04-02T01:55:56.750Z,16.96
2023-04-02T01:58:28.368Z,16.98
2023-04-02T02:01:17.117Z,16.98
2023-04-02T02:03:45.641Z,16.98
2023-04-02T02:06:18.954Z,16.98
2023-04-02T02:09:04.688Z,16.98
2023-04-02T02:11:36.419Z,16.98
2023-04-02T02:14:18.653Z,16.98
2023-04-02T02:16:47.723Z,16.96
2023-04-02T02:19:46.168Z,16.93
2023-04-02T02:22:31.763Z,16.98
2023-04-02T02:25:07.419Z,16.97
2023-04-02T02:27:59.423Z,16.96
2023-04-02T02:30:43.963Z,16.96
2023-04-02T02:33:37.176Z,16.94
2023-04-02T02:36:33.630Z,16.94
2023-04-02T02:39:14.463Z,16.94
2023-04-02T02:41:56.279Z,16.96
2023-04-02T02:44:33.357Z,16.94
2023-04-02T02:47:10.687Z,16.95
2023-04-02T02:49:47.042Z,16.94
2023-04-02T02:52:25.396Z,16.93
2023-04-02T02:55:18.741Z,16.93
2023-04-02T02:58:01.930Z,16.94
2023-04-02T03:00:35.670Z,16.94
2023-04-02T03:03:09.696Z,16.95
2023-04-02T03:05:39.374Z,16.95
2023-04-02T03:08:21.227Z,16.94
2023-04-02T03:11:22.590Z,16.94
2023-04-02T03:13:54.657Z,16.93
2023-04-02T03:16:29.825Z,16.95
2023-04-02T03:19:18.274Z,16.93
2023-04-02T03:21:56.219Z,16.93
2023-04-02T03:25:03.398Z,16.92
2023-04-02T03:27:38.753Z,16.91
2023-04-02T03:30:18.360Z,16.93
2023-04-02T03:32:49.733Z,16.92
2023-04-02T03:35:36.239Z,16.92
2023-04-02T03:38:36.440Z,16.90
2023-04-02T03:41:20.131Z,16.90
2023-04-02T03:43:56.640Z,16.90
2023-04-02T03:46:41.168Z,16.92
2023-04-02T03:49:37.170Z,16.89
2023-04-02T03:52:37.052Z,16.87
2023-04-02T03:55:23.012Z,16.87
2023-04-02T03:58:25.199Z,16.88
2023-04-02T04:01:12.572Z,16.86
2023-04-02T04:03:50.692Z,16.87
2023-04-02T04:06:29.816Z,16.88
2023-04-02T04:09:20.937Z,16.87
2023-04-02T04:12:09.137Z,16.87
2023-04-02T04:14:44.044Z,16.86
2023-04-02T04:17:51.266Z,16.85
2023-04-02T04:20:36.595Z,16.85
2023-04-02T04:23:41.305Z,16.84
2023-04-02T04:26:31.090Z,16.84
2023-04-02T04:29:38.204Z,16.85
2023-04-02T04:32:27.733Z,16.84
2023-04-02T04:35:19.657Z,16.81
2023-04-02T04:37:49.776Z,16.84
2023-04-02T04:40:36.244Z,16.84
2023-04-02T04:43:18.256Z,16.84
2023-04-02T04:45:55.738Z,16.85
2023-04-02T04:48:39.251Z,16.84
2023-04-02T04:51:30.022Z,16.84
2023-04-02T04:53:58.479Z,16.85
2023-04-02T04:56:30.993Z,16.86
2023-04-02T04:59:21.865Z,16.86
2023-04-02T05:02:13.951Z,16.85
2023-04-02T05:04:44.763Z,16.84
2023-04-02T05:07:36.840Z,16.85
2023-04-02T05:10:20.296Z,16.84
2023-04-02T05:13:22.978Z,16.83
2023-04-02T05:16:13.973Z,16.81
2023-04-02T05:19:03.104Z,16.82
2023-04-02T05:21:51.064Z,16.82
2023-04-02T05:24:53.064Z,16.83
2023-04-02T05:27:44.799Z,16.77
2023-04-02T05:30:25.856Z,16.81
2023-04-02T05:33:28.488Z,16.81
2023-04-02T05:36:14.166Z,16.81
2023-04-02T05:38:48.791Z,16.82
2023-04-02T05:41:30.454Z,16.83
2023-04-02T05:44:28.845Z,16.81
2023-04-02T05:47:04.269Z,16.84
2023-04-02T05:49:55.517Z,16.85
2023-04-02T05:52:31.082Z,16.82
2023-04-02T05:55:12.564Z,16.84
2023-04-02T05:58:34.510Z,16.83
2023-04-02T06:01:42.243Z,16.83
2023-04-02T06:04:45.700Z,16.78
2023-04-02T06:07:23.234Z,16.80
2023-04-02T06:10:04.971Z,16.80
2023-04-02T06:12:43.029Z,16.82
2023-04-02T06:15:23.897Z,16.82
2023-04-02T06:18:20.761Z,16.83
2023-04-02T06:20:49.567Z,16.80
2023-04-02T06:23:30.805Z,16.84
2023-04-02T06:26:28.086Z,16.83
2023-04-02T06:29:04.837Z,16.84
2023-04-02T06:31:40.598Z,16.83
2023-04-02T06:34:19.727Z,16.83
2023-04-02T06:37:05.460Z,16.83
2023-04-02T06:39:35.647Z,16.84
2023-04-02T06:42:22.154Z,16.83
2023-04-02T06:45:02.183Z,16.84
2023-04-02T06:47:50.427Z,16.83
2023-04-02T06:50:48.792Z,16.83
2023-04-02T06:53:41.090Z,16.85
2023-04-02T06:56:44.334Z,16.83
2023-04-02T06:59:23.816Z,16.83
2023-04-02T07:02:06.893Z,16.85
2023-04-02T07:04:40.629Z,16.86
2023-04-02T07:07:08.831Z,16.86
2023-04-02T07:09:42.729Z,16.88
2023-04-02T07:12:30.091Z,16.89
2023-04-02T07:15:10.031Z,16.90
2023-04-02T07:17:47.996Z,16.89
2023-04-02T07:20:41.796Z,16.90
